sensor_id;sensor_type;location;lat;lon;timestamp;P1;durP1;ratioP1;P2;durP2;ratioP2
5127;SDS011;2582;48.770;9.190;2023-03-01T00:02:05;24.00;;;17.40;;
5127;SDS011;2582;48.770;9.190;2023-03-01T00:04:31;22.93;;;15.60;;
5127;SDS011;2582;48.770;9.190;2023-03-01T00:06:57;20.20;;;16.20;;
5127;SDS011;2582;48.770;9.190;2023-03-01T00:09:22;19.00;;;15.73;;
5127;SDS011;2582;48.770;9.190;2023-03-01T00:11:48;20.57;;;16.53;;
5127;SDS011;2582;48.770;9.190;2023-03-01T00:14:14;25.87;;;17.30;;
5127;SDS011;2582;48.770;9.190;2023-03-01T00:16:41;20.83;;;16.67;;
5127;SDS011;2582;48.770;9.190;2023-03-01T00:19:09;20.07;;;15.90;;
5127;SDS011;2582;48.770;9.190;2023-03-01T00:21:37;24.00;;;17.60;;
5127;SDS011;2582;48.770;9.190;2023-03-01T00:24:03;18.83;;;15.03;;
5127;SDS011;2582;48.770;9.190;2023-03-01T00:26:29;20.17;;;15.80;;
5127;SDS011;2582;48.770;9.190;2023-03-01T00:28:54;18.73;;;15.33;;
5127;SDS011;2582;48.770;9.190;2023-03-01T00:31:23;21.07;;;15.53;;
5127;SDS011;2582;48.770;9.190;2023-03-01T00:33:54;19.03;;;15.50;;
5127;SDS011;2582;48.770;9.190;2023-03-01T00:36:28;21.43;;;16.73;;
5127;SDS011;2582;48.770;9.190;2023-03-01T00:38:55;21.17;;;15.33;;
5127;SDS011;2582;48.770;9.190;2023-03-01T00:41:21;18.47;;;14.43;;
5127;SDS011;2582;48.770;9.190;2023-03-01T00:43:48;18.30;;;15.77;;
5127;SDS011;2582;48.770;9.190;2023-03-01T00:46:15;17.43;;;15.37;;
5127;SDS011;2582;48.770;9.190;2023-03-01T00:48:43;19.93;;;15.93;;
5127;SDS011;2582;48.770;9.190;2023-03-01T00:51:11;23.03;;;14.87;;
5127;SDS011;2582;48.770;9.190;2023-03-01T00:53:41;18.90;;;15.30;;
5127;SDS011;2582;48.770;9.190;2023-03-01T00:56:12;21.23;;;16.87;;
5127;SDS011;2582;48.770;9.190;2023-03-01T00:58:38;21.50;;;16.47;;
5127;SDS011;2582;48.770;9.190;2023-03-01T01:01:11;19.43;;;15.10;;
5127;SDS011;2582;48.770;9.190;2023-03-01T01:03:49;21.97;;;15.77;;
5127;SDS011;2582;48.770;9.190;2023-03-01T01:06:21;19.13;;;16.20;;
5127;SDS011;2582;48.770;9.190;2023-03-01T01:08:47;21.20;;;16.33;;
5127;SDS011;2582;48.770;9.190;2023-03-01T01:11:14;20.17;;;15.70;;
5127;SDS011;2582;48.770;9.190;2023-03-01T01:13:40;21.70;;;16.83;;
5127;SDS011;2582;48.770;9.190;2023-03-01T01:16:06;19.33;;;16.00;;
5127;SDS011;2582;48.770;9.190;2023-03-01T01:18:33;20.57;;;16.30;;
5127;SDS011;2582;48.770;9.190;2023-03-01T01:21:03;19.90;;;15.90;;
5127;SDS011;2582;48.770;9.190;2023-03-01T01:23:30;19.90;;;16.70;;
5127;SDS011;2582;48.770;9.190;2023-03-01T01:25:56;22.97;;;16.93;;
5127;SDS011;2582;48.770;9.190;2023-03-01T01:28:21;22.23;;;17.73;;
5127;SDS011;2582;48.770;9.190;2023-03-01T01:30:47;20.33;;;17.33;;
5127;SDS011;2582;48.770;9.190;2023-03-01T01:33:12;18.63;;;15.53;;
5127;SDS011;2582;48.770;9.190;2023-03-01T01:35:38;22.20;;;17.37;;
5127;SDS011;2582;48.770;9.190;2023-03-01T01:38:03;22.83;;;16.40;;
5127;SDS011;2582;48.770;9.190;2023-03-01T01:40:29;21.40;;;16.30;;
5127;SDS011;2582;48.770;9.190;2023-03-01T01:42:54;22.17;;;16.60;;
5127;SDS011;2582;48.770;9.190;2023-03-01T01:47:54;21.70;;;16.90;;
5127;SDS011;2582;48.770;9.190;2023-03-01T01:50:23;24.10;;;17.77;;
5127;SDS011;2582;48.770;9.190;2023-03-01T01:52:50;22.20;;;16.57;;
5127;SDS011;2582;48.770;9.190;2023-03-01T01:55:19;22.03;;;18.07;;
5127;SDS011;2582;48.770;9.190;2023-03-01T01:57:49;21.03;;;17.10;;
5127;SDS011;2582;48.770;9.190;2023-03-01T02:00:20;20.90;;;16.97;;
5127;SDS011;2582;48.770;9.190;2023-03-01T02:02:52;23.37;;;16.60;;
5127;SDS011;2582;48.770;9.190;2023-03-01T02:08:18;22.57;;;16.43;;
5127;SDS011;2582;48.770;9.190;2023-03-01T02:10:45;24.47;;;17.30;;
5127;SDS011;2582;48.770;9.190;2023-03-01T02:13:14;21.87;;;16.57;;
5127;SDS011;2582;48.770;9.190;2023-03-01T02:15:40;21.40;;;17.40;;
5127;SDS011;2582;48.770;9.190;2023-03-01T02:18:08;19.33;;;16.07;;
5127;SDS011;2582;48.770;9.190;2023-03-01T02:20:44;22.53;;;17.80;;
5127;SDS011;2582;48.770;9.190;2023-03-01T02:23:33;23.30;;;16.20;;
5127;SDS011;2582;48.770;9.190;2023-03-01T02:29:00;25.33;;;19.13;;
5127;SDS011;2582;48.770;9.190;2023-03-01T02:31:25;21.27;;;16.83;;
5127;SDS011;2582;48.770;9.190;2023-03-01T02:34:07;21.97;;;17.97;;
5127;SDS011;2582;48.770;9.190;2023-03-01T02:36:36;19.77;;;16.90;;
5127;SDS011;2582;48.770;9.190;2023-03-01T02:39:08;22.87;;;17.50;;
5127;SDS011;2582;48.770;9.190;2023-03-01T02:41:42;20.53;;;17.10;;
5127;SDS011;2582;48.770;9.190;2023-03-01T02:44:11;20.10;;;16.47;;
5127;SDS011;2582;48.770;9.190;2023-03-01T02:47:10;21.33;;;16.03;;
5127;SDS011;2582;48.770;9.190;2023-03-01T02:49:32;19.17;;;16.57;;
5127;SDS011;2582;48.770;9.190;2023-03-01T02:52:17;21.40;;;18.17;;
5127;SDS011;2582;48.770;9.190;2023-03-01T02:54:59;20.30;;;16.80;;
5127;SDS011;2582;48.770;9.190;2023-03-01T02:57:29;22.13;;;17.80;;
5127;SDS011;2582;48.770;9.190;2023-03-01T02:59:59;22.17;;;17.47;;
5127;SDS011;2582;48.770;9.190;2023-03-01T03:02:31;20.53;;;16.90;;
5127;SDS011;2582;48.770;9.190;2023-03-01T03:05:04;23.07;;;17.37;;
5127;SDS011;2582;48.770;9.190;2023-03-01T03:07:31;21.60;;;17.80;;
5127;SDS011;2582;48.770;9.190;2023-03-01T03:09:59;24.20;;;18.10;;
5127;SDS011;2582;48.770;9.190;2023-03-01T03:12:25;18.87;;;15.67;;
5127;SDS011;2582;48.770;9.190;2023-03-01T03:14:50;22.27;;;16.97;;
5127;SDS011;2582;48.770;9.190;2023-03-01T03:17:16;19.73;;;16.97;;
5127;SDS011;2582;48.770;9.190;2023-03-01T03:19:42;21.60;;;17.70;;
5127;SDS011;2582;48.770;9.190;2023-03-01T03:22:10;21.47;;;18.10;;
5127;SDS011;2582;48.770;9.190;2023-03-01T03:24:36;20.07;;;17.07;;
5127;SDS011;2582;48.770;9.190;2023-03-01T03:27:03;20.27;;;17.10;;
5127;SDS011;2582;48.770;9.190;2023-03-01T03:29:29;21.97;;;17.73;;
5127;SDS011;2582;48.770;9.190;2023-03-01T03:31:54;20.60;;;17.00;;
5127;SDS011;2582;48.770;9.190;2023-03-01T03:34:20;20.37;;;17.17;;
5127;SDS011;2582;48.770;9.190;2023-03-01T03:36:45;25.27;;;19.23;;
5127;SDS011;2582;48.770;9.190;2023-03-01T03:39:11;21.90;;;17.50;;
5127;SDS011;2582;48.770;9.190;2023-03-01T03:41:36;22.90;;;18.10;;
5127;SDS011;2582;48.770;9.190;2023-03-01T03:44:02;19.00;;;16.23;;
5127;SDS011;2582;48.770;9.190;2023-03-01T03:46:28;25.77;;;17.63;;
5127;SDS011;2582;48.770;9.190;2023-03-01T03:48:53;20.37;;;15.97;;
5127;SDS011;2582;48.770;9.190;2023-03-01T03:51:19;24.20;;;18.73;;
5127;SDS011;2582;48.770;9.190;2023-03-01T03:53:44;19.23;;;17.13;;
5127;SDS011;2582;48.770;9.190;2023-03-01T03:56:11;24.50;;;17.50;;
5127;SDS011;2582;48.770;9.190;2023-03-01T03:58:37;20.07;;;16.33;;
5127;SDS011;2582;48.770;9.190;2023-03-01T04:01:02;22.30;;;17.93;;
5127;SDS011;2582;48.770;9.190;2023-03-01T04:03:29;20.07;;;17.00;;
5127;SDS011;2582;48.770;9.190;2023-03-01T04:05:57;21.43;;;17.90;;
5127;SDS011;2582;48.770;9.190;2023-03-01T04:08:23;21.93;;;17.17;;
5127;SDS011;2582;48.770;9.190;2023-03-01T04:10:50;19.53;;;16.10;;
5127;SDS011;2582;48.770;9.190;2023-03-01T04:13:18;20.30;;;17.60;;
5127;SDS011;2582;48.770;9.190;2023-03-01T04:15:46;21.30;;;16.33;;
5127;SDS011;2582;48.770;9.190;2023-03-01T04:18:14;20.87;;;17.43;;
5127;SDS011;2582;48.770;9.190;2023-03-01T04:20:41;21.57;;;17.70;;
5127;SDS011;2582;48.770;9.190;2023-03-01T04:23:08;22.43;;;17.80;;
5127;SDS011;2582;48.770;9.190;2023-03-01T04:25:59;21.20;;;17.60;;
5127;SDS011;2582;48.770;9.190;2023-03-01T04:28:25;23.47;;;18.73;;
5127;SDS011;2582;48.770;9.190;2023-03-01T04:30:56;20.23;;;18.10;;
5127;SDS011;2582;48.770;9.190;2023-03-01T04:33:22;22.30;;;18.63;;
5127;SDS011;2582;48.770;9.190;2023-03-01T04:35:49;20.90;;;16.23;;
5127;SDS011;2582;48.770;9.190;2023-03-01T04:38:16;22.70;;;18.40;;
5127;SDS011;2582;48.770;9.190;2023-03-01T04:40:42;22.13;;;16.77;;
5127;SDS011;2582;48.770;9.190;2023-03-01T04:43:08;23.27;;;19.17;;
5127;SDS011;2582;48.770;9.190;2023-03-01T04:45:35;21.20;;;17.97;;
5127;SDS011;2582;48.770;9.190;2023-03-01T04:48:01;21.90;;;16.67;;
5127;SDS011;2582;48.770;9.190;2023-03-01T04:50:28;23.93;;;18.87;;
5127;SDS011;2582;48.770;9.190;2023-03-01T04:52:54;24.03;;;18.03;;
5127;SDS011;2582;48.770;9.190;2023-03-01T04:55:23;19.90;;;17.40;;
5127;SDS011;2582;48.770;9.190;2023-03-01T04:57:52;22.03;;;18.40;;
5127;SDS011;2582;48.770;9.190;2023-03-01T05:00:19;19.87;;;16.80;;
5127;SDS011;2582;48.770;9.190;2023-03-01T05:02:46;22.27;;;17.63;;
5127;SDS011;2582;48.770;9.190;2023-03-01T05:05:18;22.13;;;17.27;;
5127;SDS011;2582;48.770;9.190;2023-03-01T05:07:45;22.20;;;18.70;;
5127;SDS011;2582;48.770;9.190;2023-03-01T05:10:11;22.60;;;20.20;;
5127;SDS011;2582;48.770;9.190;2023-03-01T05:12:36;22.87;;;18.00;;
5127;SDS011;2582;48.770;9.190;2023-03-01T05:15:03;21.57;;;17.47;;
5127;SDS011;2582;48.770;9.190;2023-03-01T05:17:32;25.03;;;19.77;;
5127;SDS011;2582;48.770;9.190;2023-03-01T05:20:00;20.03;;;17.93;;
5127;SDS011;2582;48.770;9.190;2023-03-01T05:22:27;22.90;;;17.83;;
5127;SDS011;2582;48.770;9.190;2023-03-01T05:24:54;22.03;;;17.83;;
5127;SDS011;2582;48.770;9.190;2023-03-01T05:27:20;27.90;;;20.20;;
5127;SDS011;2582;48.770;9.190;2023-03-01T05:29:47;23.70;;;18.70;;
5127;SDS011;2582;48.770;9.190;2023-03-01T05:32:12;24.67;;;19.90;;
5127;SDS011;2582;48.770;9.190;2023-03-01T05:34:40;24.33;;;19.97;;
5127;SDS011;2582;48.770;9.190;2023-03-01T05:37:06;25.03;;;19.33;;
5127;SDS011;2582;48.770;9.190;2023-03-01T05:39:32;22.33;;;19.93;;
5127;SDS011;2582;48.770;9.190;2023-03-01T05:41:59;27.03;;;21.07;;
5127;SDS011;2582;48.770;9.190;2023-03-01T05:44:26;21.50;;;17.70;;
5127;SDS011;2582;48.770;9.190;2023-03-01T05:46:53;23.50;;;17.73;;
5127;SDS011;2582;48.770;9.190;2023-03-01T05:49:20;20.13;;;18.00;;
5127;SDS011;2582;48.770;9.190;2023-03-01T05:51:49;25.10;;;19.60;;
5127;SDS011;2582;48.770;9.190;2023-03-01T05:54:16;24.80;;;19.37;;
5127;SDS011;2582;48.770;9.190;2023-03-01T05:56:43;24.57;;;19.63;;
5127;SDS011;2582;48.770;9.190;2023-03-01T05:59:09;25.37;;;18.83;;
5127;SDS011;2582;48.770;9.190;2023-03-01T06:01:35;22.67;;;18.77;;
5127;SDS011;2582;48.770;9.190;2023-03-01T06:04:01;23.20;;;20.70;;
5127;SDS011;2582;48.770;9.190;2023-03-01T06:06:27;31.20;;;21.70;;
5127;SDS011;2582;48.770;9.190;2023-03-01T06:08:53;26.83;;;20.60;;
5127;SDS011;2582;48.770;9.190;2023-03-01T06:11:19;26.67;;;20.80;;
5127;SDS011;2582;48.770;9.190;2023-03-01T06:13:46;26.70;;;20.40;;
5127;SDS011;2582;48.770;9.190;2023-03-01T06:16:12;23.80;;;19.20;;
5127;SDS011;2582;48.770;9.190;2023-03-01T06:18:39;28.00;;;20.43;;
5127;SDS011;2582;48.770;9.190;2023-03-01T06:21:05;30.30;;;21.43;;
5127;SDS011;2582;48.770;9.190;2023-03-01T06:23:32;24.20;;;18.73;;
5127;SDS011;2582;48.770;9.190;2023-03-01T06:25:58;26.70;;;20.90;;
5127;SDS011;2582;48.770;9.190;2023-03-01T06:28:24;21.47;;;18.77;;
5127;SDS011;2582;48.770;9.190;2023-03-01T06:30:49;24.07;;;18.70;;
5127;SDS011;2582;48.770;9.190;2023-03-01T06:33:16;24.03;;;19.90;;
5127;SDS011;2582;48.770;9.190;2023-03-01T06:35:44;23.23;;;19.03;;
5127;SDS011;2582;48.770;9.190;2023-03-01T06:38:09;22.63;;;19.70;;
5127;SDS011;2582;48.770;9.190;2023-03-01T06:40:35;27.60;;;21.07;;
5127;SDS011;2582;48.770;9.190;2023-03-01T06:43:01;25.90;;;19.80;;
5127;SDS011;2582;48.770;9.190;2023-03-01T06:45:27;29.20;;;21.07;;
5127;SDS011;2582;48.770;9.190;2023-03-01T06:47:52;27.10;;;19.70;;
5127;SDS011;2582;48.770;9.190;2023-03-01T06:50:25;26.10;;;19.80;;
5127;SDS011;2582;48.770;9.190;2023-03-01T06:52:55;25.17;;;20.10;;
5127;SDS011;2582;48.770;9.190;2023-03-01T06:55:21;23.63;;;20.80;;
5127;SDS011;2582;48.770;9.190;2023-03-01T06:57:47;31.00;;;19.87;;
5127;SDS011;2582;48.770;9.190;2023-03-01T07:00:12;23.80;;;20.43;;
5127;SDS011;2582;48.770;9.190;2023-03-01T07:02:38;28.77;;;20.67;;
5127;SDS011;2582;48.770;9.190;2023-03-01T07:05:04;25.73;;;20.43;;
5127;SDS011;2582;48.770;9.190;2023-03-01T07:07:30;22.73;;;18.87;;
5127;SDS011;2582;48.770;9.190;2023-03-01T07:09:55;28.10;;;20.80;;
5127;SDS011;2582;48.770;9.190;2023-03-01T07:12:21;32.50;;;21.20;;
5127;SDS011;2582;48.770;9.190;2023-03-01T07:14:47;27.73;;;21.33;;
5127;SDS011;2582;48.770;9.190;2023-03-01T07:17:13;23.07;;;19.77;;
5127;SDS011;2582;48.770;9.190;2023-03-01T07:19:39;26.93;;;20.83;;
5127;SDS011;2582;48.770;9.190;2023-03-01T07:22:04;29.00;;;20.30;;
5127;SDS011;2582;48.770;9.190;2023-03-01T07:24:32;27.33;;;20.87;;
5127;SDS011;2582;48.770;9.190;2023-03-01T07:26:58;29.87;;;22.77;;
5127;SDS011;2582;48.770;9.190;2023-03-01T07:29:24;27.30;;;21.07;;
5127;SDS011;2582;48.770;9.190;2023-03-01T07:31:49;30.20;;;21.03;;
5127;SDS011;2582;48.770;9.190;2023-03-01T07:34:15;25.40;;;21.43;;
5127;SDS011;2582;48.770;9.190;2023-03-01T07:36:40;29.23;;;21.50;;
5127;SDS011;2582;48.770;9.190;2023-03-01T07:39:08;23.20;;;19.83;;
5127;SDS011;2582;48.770;9.190;2023-03-01T07:41:35;28.30;;;21.30;;
5127;SDS011;2582;48.770;9.190;2023-03-01T07:44:00;27.90;;;20.93;;
5127;SDS011;2582;48.770;9.190;2023-03-01T07:46:26;31.00;;;21.90;;
5127;SDS011;2582;48.770;9.190;2023-03-01T07:48:51;27.50;;;21.60;;
5127;SDS011;2582;48.770;9.190;2023-03-01T07:51:17;26.13;;;21.20;;
5127;SDS011;2582;48.770;9.190;2023-03-01T07:53:44;29.27;;;21.10;;
5127;SDS011;2582;48.770;9.190;2023-03-01T07:56:13;25.13;;;20.70;;
5127;SDS011;2582;48.770;9.190;2023-03-01T07:58:42;27.87;;;20.00;;
5127;SDS011;2582;48.770;9.190;2023-03-01T08:01:09;24.53;;;20.77;;
5127;SDS011;2582;48.770;9.190;2023-03-01T08:03:39;27.90;;;21.50;;
5127;SDS011;2582;48.770;9.190;2023-03-01T08:06:06;27.83;;;22.07;;
5127;SDS011;2582;48.770;9.190;2023-03-01T08:08:33;25.87;;;19.97;;
5127;SDS011;2582;48.770;9.190;2023-03-01T08:10:59;27.40;;;20.73;;
5127;SDS011;2582;48.770;9.190;2023-03-01T08:13:26;25.70;;;20.17;;
5127;SDS011;2582;48.770;9.190;2023-03-01T08:15:52;28.90;;;22.17;;
5127;SDS011;2582;48.770;9.190;2023-03-01T08:18:18;27.63;;;21.40;;
5127;SDS011;2582;48.770;9.190;2023-03-01T08:20:45;29.33;;;20.77;;
5127;SDS011;2582;48.770;9.190;2023-03-01T08:23:11;27.23;;;21.70;;
5127;SDS011;2582;48.770;9.190;2023-03-01T08:25:37;26.03;;;20.87;;
5127;SDS011;2582;48.770;9.190;2023-03-01T08:28:03;31.97;;;23.37;;
5127;SDS011;2582;48.770;9.190;2023-03-01T08:30:29;26.60;;;20.40;;
5127;SDS011;2582;48.770;9.190;2023-03-01T08:32:55;28.20;;;21.90;;
5127;SDS011;2582;48.770;9.190;2023-03-01T08:35:21;26.60;;;22.13;;
5127;SDS011;2582;48.770;9.190;2023-03-01T08:37:46;27.07;;;21.47;;
5127;SDS011;2582;48.770;9.190;2023-03-01T08:40:12;28.87;;;21.83;;
5127;SDS011;2582;48.770;9.190;2023-03-01T08:42:39;28.50;;;21.20;;
5127;SDS011;2582;48.770;9.190;2023-03-01T08:45:06;31.13;;;23.57;;
5127;SDS011;2582;48.770;9.190;2023-03-01T08:47:32;27.60;;;21.47;;
5127;SDS011;2582;48.770;9.190;2023-03-01T08:49:58;24.83;;;20.93;;
5127;SDS011;2582;48.770;9.190;2023-03-01T08:52:24;29.10;;;21.97;;
5127;SDS011;2582;48.770;9.190;2023-03-01T08:54:50;25.43;;;21.30;;
5127;SDS011;2582;48.770;9.190;2023-03-01T08:57:16;27.63;;;22.27;;
5127;SDS011;2582;48.770;9.190;2023-03-01T08:59:42;28.67;;;22.43;;
5127;SDS011;2582;48.770;9.190;2023-03-01T09:02:10;28.40;;;21.70;;
5127;SDS011;2582;48.770;9.190;2023-03-01T09:04:38;26.73;;;22.30;;
5127;SDS011;2582;48.770;9.190;2023-03-01T09:07:03;31.83;;;21.13;;
5127;SDS011;2582;48.770;9.190;2023-03-01T09:09:29;28.70;;;21.70;;
5127;SDS011;2582;48.770;9.190;2023-03-01T09:11:55;27.07;;;21.67;;
5127;SDS011;2582;48.770;9.190;2023-03-01T09:14:20;28.20;;;21.63;;
5127;SDS011;2582;48.770;9.190;2023-03-01T09:16:46;26.93;;;21.07;;
5127;SDS011;2582;48.770;9.190;2023-03-01T09:19:12;34.83;;;23.67;;
5127;SDS011;2582;48.770;9.190;2023-03-01T09:21:37;28.87;;;23.13;;
5127;SDS011;2582;48.770;9.190;2023-03-01T09:24:03;31.43;;;21.07;;
5127;SDS011;2582;48.770;9.190;2023-03-01T09:26:29;25.50;;;21.73;;
5127;SDS011;2582;48.770;9.190;2023-03-01T09:28:55;27.07;;;21.97;;
5127;SDS011;2582;48.770;9.190;2023-03-01T09:31:21;32.40;;;23.10;;
5127;SDS011;2582;48.770;9.190;2023-03-01T09:33:49;28.80;;;22.80;;
5127;SDS011;2582;48.770;9.190;2023-03-01T09:36:18;30.30;;;22.20;;
5127;SDS011;2582;48.770;9.190;2023-03-01T09:38:46;27.23;;;22.87;;
5127;SDS011;2582;48.770;9.190;2023-03-01T09:44:03;28.90;;;22.80;;
5127;SDS011;2582;48.770;9.190;2023-03-01T09:46:35;32.60;;;22.13;;
5127;SDS011;2582;48.770;9.190;2023-03-01T09:49:10;29.57;;;23.43;;
5127;SDS011;2582;48.770;9.190;2023-03-01T09:51:42;26.87;;;21.60;;
5127;SDS011;2582;48.770;9.190;2023-03-01T09:54:12;32.50;;;22.13;;
5127;SDS011;2582;48.770;9.190;2023-03-01T09:56:41;32.90;;;23.83;;
5127;SDS011;2582;48.770;9.190;2023-03-01T09:59:29;25.27;;;20.20;;
5127;SDS011;2582;48.770;9.190;2023-03-01T10:01:59;22.40;;;19.80;;
5127;SDS011;2582;48.770;9.190;2023-03-01T10:09:57;24.03;;;19.87;;
5127;SDS011;2582;48.770;9.190;2023-03-01T10:12:25;22.63;;;19.93;;
5127;SDS011;2582;48.770;9.190;2023-03-01T10:17:46;26.43;;;20.43;;
5127;SDS011;2582;48.770;9.190;2023-03-01T10:20:21;26.67;;;21.87;;
5127;SDS011;2582;48.770;9.190;2023-03-01T10:22:49;27.20;;;21.23;;
5127;SDS011;2582;48.770;9.190;2023-03-01T10:25:31;28.77;;;21.47;;
5127;SDS011;2582;48.770;9.190;2023-03-01T10:28:16;27.40;;;20.63;;
5127;SDS011;2582;48.770;9.190;2023-03-01T10:30:42;26.70;;;20.43;;
5127;SDS011;2582;48.770;9.190;2023-03-01T10:33:20;23.60;;;20.30;;
5127;SDS011;2582;48.770;9.190;2023-03-01T10:35:49;27.10;;;21.10;;
5127;SDS011;2582;48.770;9.190;2023-03-01T10:38:15;23.70;;;20.00;;
5127;SDS011;2582;48.770;9.190;2023-03-01T10:43:58;28.67;;;21.00;;
5127;SDS011;2582;48.770;9.190;2023-03-01T10:51:41;24.20;;;19.73;;
5127;SDS011;2582;48.770;9.190;2023-03-01T10:54:22;22.80;;;20.13;;
5127;SDS011;2582;48.770;9.190;2023-03-01T10:57:02;23.73;;;20.17;;
5127;SDS011;2582;48.770;9.190;2023-03-01T10:59:31;24.07;;;19.77;;
5127;SDS011;2582;48.770;9.190;2023-03-01T11:04:26;24.67;;;19.77;;
5127;SDS011;2582;48.770;9.190;2023-03-01T11:06:57;25.03;;;21.20;;
5127;SDS011;2582;48.770;9.190;2023-03-01T11:09:24;24.47;;;19.43;;
5127;SDS011;2582;48.770;9.190;2023-03-01T11:11:56;21.80;;;18.97;;
5127;SDS011;2582;48.770;9.190;2023-03-01T11:14:27;23.50;;;18.10;;
5127;SDS011;2582;48.770;9.190;2023-03-01T11:17:42;25.43;;;19.10;;
5127;SDS011;2582;48.770;9.190;2023-03-01T11:20:13;23.07;;;17.97;;
5127;SDS011;2582;48.770;9.190;2023-03-01T11:22:49;21.40;;;17.37;;
5127;SDS011;2582;48.770;9.190;2023-03-01T11:25:17;21.63;;;18.83;;
5127;SDS011;2582;48.770;9.190;2023-03-01T11:27:49;24.77;;;19.67;;
5127;SDS011;2582;48.770;9.190;2023-03-01T11:30:28;23.30;;;19.20;;
5127;SDS011;2582;48.770;9.190;2023-03-01T11:33:08;21.40;;;19.10;;
5127;SDS011;2582;48.770;9.190;2023-03-01T11:35:42;22.83;;;19.20;;
5127;SDS011;2582;48.770;9.190;2023-03-01T11:38:24;22.60;;;20.20;;
5127;SDS011;2582;48.770;9.190;2023-03-01T11:40:53;21.37;;;16.97;;
5127;SDS011;2582;48.770;9.190;2023-03-01T11:43:30;21.07;;;17.53;;
5127;SDS011;2582;48.770;9.190;2023-03-01T11:56:47;19.97;;;17.60;;
5127;SDS011;2582;48.770;9.190;2023-03-01T12:05:05;21.63;;;18.77;;
5127;SDS011;2582;48.770;9.190;2023-03-01T12:10:19;21.43;;;19.20;;
5127;SDS011;2582;48.770;9.190;2023-03-01T12:12:58;19.60;;;17.50;;
5127;SDS011;2582;48.770;9.190;2023-03-01T12:28:46;19.43;;;17.43;;
5127;SDS011;2582;48.770;9.190;2023-03-01T12:39:38;24.53;;;18.67;;
5127;SDS011;2582;48.770;9.190;2023-03-01T12:42:17;20.17;;;17.93;;
5127;SDS011;2582;48.770;9.190;2023-03-01T12:45:24;20.00;;;17.97;;
5127;SDS011;2582;48.770;9.190;2023-03-01T12:50:47;18.77;;;16.77;;
5127;SDS011;2582;48.770;9.190;2023-03-01T12:53:29;19.90;;;17.80;;
5127;SDS011;2582;48.770;9.190;2023-03-01T12:56:05;18.83;;;16.87;;
5127;SDS011;2582;48.770;9.190;2023-03-01T13:07:58;22.40;;;17.73;;
5127;SDS011;2582;48.770;9.190;2023-03-01T13:10:52;18.40;;;16.30;;
5127;SDS011;2582;48.770;9.190;2023-03-01T13:13:27;17.17;;;15.47;;
5127;SDS011;2582;48.770;9.190;2023-03-01T13:15:53;17.90;;;16.10;;
5127;SDS011;2582;48.770;9.190;2023-03-01T13:20:48;19.47;;;16.10;;
5127;SDS011;2582;48.770;9.190;2023-03-01T13:31:01;18.93;;;14.83;;
5127;SDS011;2582;48.770;9.190;2023-03-01T13:35:57;16.73;;;15.00;;
5127;SDS011;2582;48.770;9.190;2023-03-01T13:41:02;20.03;;;17.93;;
5127;SDS011;2582;48.770;9.190;2023-03-01T13:43:29;19.50;;;17.40;;
5127;SDS011;2582;48.770;9.190;2023-03-01T13:46:00;18.67;;;16.77;;
5127;SDS011;2582;48.770;9.190;2023-03-01T13:48:33;21.30;;;17.83;;
5127;SDS011;2582;48.770;9.190;2023-03-01T13:51:00;17.47;;;15.83;;
5127;SDS011;2582;48.770;9.190;2023-03-01T13:53:29;19.87;;;17.80;;
5127;SDS011;2582;48.770;9.190;2023-03-01T13:55:59;19.00;;;17.17;;
5127;SDS011;2582;48.770;9.190;2023-03-01T13:58:50;19.40;;;17.60;;
5127;SDS011;2582;48.770;9.190;2023-03-01T14:01:23;20.97;;;18.80;;
5127;SDS011;2582;48.770;9.190;2023-03-01T14:03:49;20.43;;;18.23;;
5127;SDS011;2582;48.770;9.190;2023-03-01T14:06:16;21.43;;;18.67;;
5127;SDS011;2582;48.770;9.190;2023-03-01T14:08:46;22.93;;;20.70;;
5127;SDS011;2582;48.770;9.190;2023-03-01T14:11:22;21.33;;;19.33;;
5127;SDS011;2582;48.770;9.190;2023-03-01T14:19:29;20.77;;;18.70;;
5127;SDS011;2582;48.770;9.190;2023-03-01T14:24:44;22.03;;;19.70;;
5127;SDS011;2582;48.770;9.190;2023-03-01T14:27:14;22.80;;;20.50;;
5127;SDS011;2582;48.770;9.190;2023-03-01T14:29:40;20.67;;;18.53;;
5127;SDS011;2582;48.770;9.190;2023-03-01T14:34:35;25.33;;;21.50;;
5127;SDS011;2582;48.770;9.190;2023-03-01T14:37:27;23.17;;;19.67;;
5127;SDS011;2582;48.770;9.190;2023-03-01T14:39:58;23.07;;;20.23;;
5127;SDS011;2582;48.770;9.190;2023-03-01T14:42:27;23.23;;;19.43;;
5127;SDS011;2582;48.770;9.190;2023-03-01T14:44:56;22.60;;;20.20;;
5127;SDS011;2582;48.770;9.190;2023-03-01T14:47:27;21.40;;;19.10;;
5127;SDS011;2582;48.770;9.190;2023-03-01T14:50:08;22.97;;;20.20;;
5127;SDS011;2582;48.770;9.190;2023-03-01T14:52:44;23.90;;;20.10;;
5127;SDS011;2582;48.770;9.190;2023-03-01T14:55:17;25.47;;;19.70;;
5127;SDS011;2582;48.770;9.190;2023-03-01T14:57:46;22.90;;;18.90;;
5127;SDS011;2582;48.770;9.190;2023-03-01T15:00:24;21.27;;;19.07;;
5127;SDS011;2582;48.770;9.190;2023-03-01T15:02:55;38.13;;;22.20;;
5127;SDS011;2582;48.770;9.190;2023-03-01T15:05:31;23.60;;;19.13;;
5127;SDS011;2582;48.770;9.190;2023-03-01T15:07:58;22.90;;;19.57;;
5127;SDS011;2582;48.770;9.190;2023-03-01T15:10:31;21.53;;;19.23;;
5127;SDS011;2582;48.770;9.190;2023-03-01T15:13:19;25.30;;;19.90;;
5127;SDS011;2582;48.770;9.190;2023-03-01T15:15:47;23.30;;;19.47;;
5127;SDS011;2582;48.770;9.190;2023-03-01T15:18:19;22.37;;;19.27;;
5127;SDS011;2582;48.770;9.190;2023-03-01T15:20:47;21.80;;;19.50;;
5127;SDS011;2582;48.770;9.190;2023-03-01T15:23:25;27.30;;;19.53;;
5127;SDS011;2582;48.770;9.190;2023-03-01T15:25:53;28.23;;;20.10;;
5127;SDS011;2582;48.770;9.190;2023-03-01T15:28:22;24.77;;;20.30;;
5127;SDS011;2582;48.770;9.190;2023-03-01T15:30:56;22.83;;;19.77;;
5127;SDS011;2582;48.770;9.190;2023-03-01T15:35:58;26.60;;;20.37;;
5127;SDS011;2582;48.770;9.190;2023-03-01T15:43:47;22.53;;;18.67;;
5127;SDS011;2582;48.770;9.190;2023-03-01T15:46:19;26.13;;;19.27;;
5127;SDS011;2582;48.770;9.190;2023-03-01T15:48:52;24.70;;;20.83;;
5127;SDS011;2582;48.770;9.190;2023-03-01T15:51:22;23.03;;;20.27;;
5127;SDS011;2582;48.770;9.190;2023-03-01T15:53:53;24.43;;;20.77;;
5127;SDS011;2582;48.770;9.190;2023-03-01T15:56:19;24.60;;;21.20;;
5127;SDS011;2582;48.770;9.190;2023-03-01T15:58:45;22.87;;;19.00;;
5127;SDS011;2582;48.770;9.190;2023-03-01T16:01:14;22.37;;;19.23;;
5127;SDS011;2582;48.770;9.190;2023-03-01T16:03:44;25.87;;;18.57;;
5127;SDS011;2582;48.770;9.190;2023-03-01T16:06:10;23.80;;;19.70;;
5127;SDS011;2582;48.770;9.190;2023-03-01T16:08:37;21.80;;;18.80;;
5127;SDS011;2582;48.770;9.190;2023-03-01T16:11:09;23.17;;;19.63;;
5127;SDS011;2582;48.770;9.190;2023-03-01T16:13:38;24.60;;;18.87;;
5127;SDS011;2582;48.770;9.190;2023-03-01T16:16:04;23.20;;;18.50;;
5127;SDS011;2582;48.770;9.190;2023-03-01T16:18:30;25.33;;;19.83;;
5127;SDS011;2582;48.770;9.190;2023-03-01T16:20:55;23.37;;;19.47;;
5127;SDS011;2582;48.770;9.190;2023-03-01T16:23:21;22.50;;;18.93;;
5127;SDS011;2582;48.770;9.190;2023-03-01T16:25:49;25.87;;;19.17;;
5127;SDS011;2582;48.770;9.190;2023-03-01T16:28:15;23.43;;;19.43;;
5127;SDS011;2582;48.770;9.190;2023-03-01T16:30:44;21.33;;;18.77;;
5127;SDS011;2582;48.770;9.190;2023-03-01T16:33:11;23.33;;;19.47;;
5127;SDS011;2582;48.770;9.190;2023-03-01T16:35:39;23.17;;;18.90;;
5127;SDS011;2582;48.770;9.190;2023-03-01T16:38:05;23.20;;;19.37;;
5127;SDS011;2582;48.770;9.190;2023-03-01T16:40:30;22.43;;;18.23;;
5127;SDS011;2582;48.770;9.190;2023-03-01T16:42:56;23.53;;;20.33;;
5127;SDS011;2582;48.770;9.190;2023-03-01T16:45:25;23.23;;;19.10;;
5127;SDS011;2582;48.770;9.190;2023-03-01T16:47:52;22.27;;;18.27;;
5127;SDS011;2582;48.770;9.190;2023-03-01T16:50:18;22.90;;;18.53;;
5127;SDS011;2582;48.770;9.190;2023-03-01T16:52:43;21.80;;;18.47;;
5127;SDS011;2582;48.770;9.190;2023-03-01T16:55:09;21.60;;;18.10;;
5127;SDS011;2582;48.770;9.190;2023-03-01T16:57:36;21.80;;;17.27;;